createdAt,value
2023-10-26T00:01:07.876Z,0.73
2023-10-26T00:03:11.352Z,0.82
2023-10-26T00:05:13.322Z,0.55
2023-10-26T00:07:15.352Z,0.90
2023-10-26T00:09:17.186Z,1.10
2023-10-26T00:11:18.992Z,0.88
2023-10-26T00:13:20.782Z,1.35
2023-10-26T00:15:22.718Z,0.75
2023-10-26T00:17:24.447Z,1.52
2023-10-26T00:19:26.292Z,1.20
2023-10-26T00:21:28.177Z,1.17
2023-10-26T00:23:30.197Z,0.93
2023-10-26T00:25:32.061Z,0.90
2023-10-26T00:27:34.149Z,1.10
2023-10-26T00:29:35.870Z,1.13
2023-10-26T00:31:37.658Z,0.80
2023-10-26T00:33:40.530Z,1.02
2023-10-26T00:35:43.614Z,0.85
2023-10-26T00:37:45.442Z,1.25
2023-10-26T00:39:47.160Z,1.20
2023-10-26T00:41:53.438Z,1.00
2023-10-26T00:43:55.260Z,1.15
2023-10-26T00:45:59.346Z,0.60
2023-10-26T00:48:01.722Z,0.88
2023-10-26T00:50:04.563Z,0.70
2023-10-26T00:52:06.551Z,0.70
2023-10-26T00:56:13.295Z,1.15
2023-10-26T00:58:17.525Z,0.52
2023-10-26T01:02:23.806Z,0.60
2023-10-26T01:06:28.856Z,0.80
2023-10-26T01:08:32.080Z,0.93
2023-10-26T01:10:35.835Z,0.70
2023-10-26T01:12:37.954Z,0.47
2023-10-26T01:14:39.970Z,0.60
2023-10-26T01:16:41.972Z,0.50
2023-10-26T01:18:44.037Z,0.93
2023-10-26T01:20:46.085Z,0.75
2023-10-26T01:22:48.109Z,0.70
2023-10-26T01:24:49.815Z,0.60
2023-10-26T01:26:51.570Z,0.50
2023-10-26T01:29:08.674Z,0.50
2023-10-26T01:31:10.503Z,0.52
2023-10-26T01:33:12.409Z,0.73
2023-10-26T01:35:14.204Z,0.75
2023-10-26T01:37:16.063Z,0.77
2023-10-26T01:39:18.482Z,0.60
2023-10-26T01:41:20.208Z,0.55
2023-10-26T01:43:21.999Z,0.52
2023-10-26T01:45:23.942Z,0.45
2023-10-26T01:47:25.826Z,0.50
2023-10-26T01:49:27.710Z,0.40
2023-10-26T01:51:30.080Z,0.40
2023-10-26T01:53:32.122Z,0.52
2023-10-26T01:55:33.960Z,0.40
2023-10-26T01:57:35.828Z,0.70
2023-10-26T01:59:37.800Z,0.40
2023-10-26T02:01:39.581Z,0.75
2023-10-26T02:03:41.437Z,0.40
2023-10-26T02:05:44.141Z,0.55
2023-10-26T02:07:47.650Z,0.50
2023-10-26T02:09:49.413Z,0.30
2023-10-26T02:11:51.378Z,0.40
2023-10-26T02:13:54.258Z,0.40
2023-10-26T02:15:56.301Z,0.50
2023-10-26T02:17:58.345Z,0.40
2023-10-26T02:20:00.230Z,0.70
2023-10-26T02:22:02.006Z,0.38
2023-10-26T02:24:04.242Z,0.47
2023-10-26T02:26:06.145Z,0.30
2023-10-26T02:28:07.940Z,0.30
2023-10-26T02:30:10.194Z,0.70
2023-10-26T02:32:11.912Z,0.30
2023-10-26T02:34:13.817Z,0.52
2023-10-26T02:36:15.647Z,0.73
2023-10-26T02:38:17.483Z,0.32
2023-10-26T02:40:22.373Z,0.40
2023-10-26T02:42:24.293Z,0.40
2023-10-26T02:44:26.697Z,0.35
2023-10-26T02:46:28.534Z,0.60
2023-10-26T02:48:31.466Z,0.40
2023-10-26T02:50:36.245Z,0.38
2023-10-26T02:52:39.241Z,0.30
2023-10-26T02:54:41.124Z,0.40
2023-10-26T02:56:43.017Z,2.20
2023-10-26T02:58:45.249Z,0.30
2023-10-26T03:00:46.982Z,0.30
2023-10-26T03:02:49.071Z,0.30
2023-10-26T03:04:50.985Z,0.30
2023-10-26T03:06:52.940Z,0.52
2023-10-26T03:08:56.778Z,0.20
2023-10-26T03:10:59.839Z,0.40
2023-10-26T03:13:01.795Z,0.20
2023-10-26T03:15:03.759Z,0.20
2023-10-26T03:17:05.758Z,0.28
2023-10-26T03:19:07.501Z,0.40
2023-10-26T03:21:09.249Z,0.30
2023-10-26T03:23:11.109Z,0.65
2023-10-26T03:25:15.312Z,0.50
2023-10-26T03:27:19.758Z,0.20
2023-10-26T03:29:22.567Z,0.20
2023-10-26T03:31:24.524Z,0.32
2023-10-26T03:33:26.439Z,0.20
2023-10-26T03:36:12.581Z,0.50
2023-10-26T03:38:14.679Z,0.38
2023-10-26T03:40:16.902Z,0.40
2023-10-26T03:42:18.697Z,0.73
2023-10-26T03:44:20.512Z,0.30
2023-10-26T03:46:22.422Z,0.20
2023-10-26T03:48:24.319Z,0.17
2023-10-26T03:50:26.259Z,0.30
2023-10-26T03:52:28.325Z,0.30
2023-10-26T03:54:30.277Z,0.25
2023-10-26T03:56:32.065Z,0.50
2023-10-26T03:58:33.829Z,0.20
2023-10-26T04:00:35.767Z,0.30
2023-10-26T04:02:38.695Z,0.43
2023-10-26T04:04:43.834Z,0.30
2023-10-26T04:06:46.511Z,0.32
2023-10-26T04:08:48.561Z,0.35
2023-10-26T04:10:50.865Z,0.32
2023-10-26T04:12:52.831Z,0.40
2023-10-26T04:14:54.632Z,0.22
2023-10-26T04:16:56.476Z,0.30
2023-10-26T04:18:58.216Z,0.47
2023-10-26T04:21:13.800Z,0.43
2023-10-26T04:23:17.088Z,0.50
2023-10-26T04:25:18.978Z,0.30
2023-10-26T04:27:21.253Z,0.75
2023-10-26T04:29:23.100Z,0.47
2023-10-26T04:31:26.087Z,0.30
2023-10-26T04:33:34.003Z,0.30
2023-10-26T04:35:35.769Z,0.55
2023-10-26T04:37:37.774Z,0.45
2023-10-26T04:39:42.716Z,0.30
2023-10-26T04:41:44.458Z,0.32
2023-10-26T04:43:46.516Z,0.28
2023-10-26T04:45:48.665Z,0.30
2023-10-26T04:47:50.470Z,0.50
2023-10-26T04:49:52.611Z,0.40
2023-10-26T04:51:54.370Z,0.50
2023-10-26T04:53:56.220Z,0.47
2023-10-26T04:55:58.209Z,0.50
2023-10-26T04:58:01.346Z,0.40
2023-10-26T05:00:03.814Z,0.30
2023-10-26T05:02:05.563Z,0.30
2023-10-26T05:04:07.557Z,0.35
2023-10-26T05:06:09.530Z,0.40
2023-10-26T05:08:11.728Z,0.30
2023-10-26T05:10:13.849Z,0.50
2023-10-26T05:12:15.764Z,0.47
2023-10-26T05:14:17.564Z,0.43
2023-10-26T05:16:55.617Z,0.57
2023-10-26T05:18:52.686Z,0.50
2023-10-26T05:20:54.442Z,0.40
2023-10-26T05:22:58.096Z,0.73
2023-10-26T05:25:01.892Z,0.30
2023-10-26T05:27:04.212Z,0.40
2023-10-26T05:29:05.990Z,0.68
2023-10-26T05:31:07.686Z,0.40
2023-10-26T05:33:09.525Z,0.38
2023-10-26T05:35:11.304Z,0.30
2023-10-26T05:37:13.132Z,0.52
2023-10-26T05:39:17.074Z,0.30
2023-10-26T05:41:19.163Z,0.30
2023-10-26T05:43:21.009Z,0.20
2023-10-26T05:45:23.508Z,0.50
2023-10-26T05:47:25.463Z,0.22
2023-10-26T05:49:27.444Z,0.47
2023-10-26T05:51:30.306Z,0.40
2023-10-26T05:53:32.330Z,0.30
2023-10-26T05:55:34.462Z,0.40
2023-10-26T05:57:36.282Z,0.60
2023-10-26T05:59:38.033Z,0.63
2023-10-26T06:01:39.901Z,0.40
2023-10-26T06:03:41.756Z,0.32
2023-10-26T06:05:44.129Z,0.47
2023-10-26T06:07:45.839Z,0.50
2023-10-26T06:09:47.697Z,0.43
2023-10-26T06:11:49.617Z,0.52
2023-10-26T06:13:51.517Z,0.50
2023-10-26T06:15:54.081Z,0.40
2023-10-26T06:17:55.949Z,0.50
2023-10-26T06:19:57.934Z,0.63
2023-10-26T06:21:59.794Z,0.40
2023-10-26T06:24:01.523Z,0.73
2023-10-26T06:26:04.687Z,0.50
2023-10-26T06:28:06.547Z,0.55
2023-10-26T06:30:08.817Z,0.40
2023-10-26T06:32:11.650Z,0.40
2023-10-26T06:34:13.387Z,0.52
2023-10-26T06:36:18.532Z,0.52
2023-10-26T06:38:20.483Z,0.50
2023-10-26T06:40:22.280Z,0.30
2023-10-26T06:42:24.232Z,0.43
2023-10-26T06:44:26.168Z,0.47
2023-10-26T06:46:27.895Z,0.40
2023-10-26T06:48:30.233Z,0.68
2023-10-26T06:50:32.389Z,0.30
2023-10-26T06:52:34.366Z,0.30
2023-10-26T06:54:37.849Z,0.30
2023-10-26T06:56:40.948Z,0.30
2023-10-26T06:58:44.336Z,0.20
2023-10-26T07:00:52.261Z,0.40
2023-10-26T07:02:55.456Z,0.20
2023-10-26T07:04:58.912Z,0.22
2023-10-26T07:07:00.786Z,0.43
2023-10-26T07:09:03.949Z,0.60
2023-10-26T07:11:07.326Z,0.30
2023-10-26T07:13:09.596Z,0.68
2023-10-26T07:15:12.627Z,0.63
2023-10-26T07:17:14.563Z,0.30
2023-10-26T07:19:16.358Z,0.55
2023-10-26T07:21:19.210Z,0.40
2023-10-26T07:23:21.390Z,0.30
2023-10-26T07:25:23.158Z,0.22
2023-10-26T07:27:27.892Z,0.30
2023-10-26T07:29:30.095Z,0.43
2023-10-26T07:31:31.997Z,0.40
2023-10-26T07:33:33.827Z,0.30
2023-10-26T07:35:42.169Z,0.30
2023-10-26T07:37:46.286Z,0.40
2023-10-26T07:39:51.796Z,0.73
2023-10-26T07:42:13.518Z,0.20
2023-10-26T07:44:15.480Z,0.30
2023-10-26T07:46:17.379Z,0.38
2023-10-26T07:48:20.576Z,0.30
2023-10-26T07:50:23.471Z,0.50
2023-10-26T07:52:25.364Z,0.20
2023-10-26T07:54:27.461Z,0.40
2023-10-26T07:56:30.447Z,0.30
2023-10-26T07:58:33.745Z,0.63
2023-10-26T08:00:37.316Z,0.30
2023-10-26T08:02:40.861Z,0.40
2023-10-26T08:04:43.507Z,0.50
2023-10-26T08:06:45.591Z,0.50
2023-10-26T08:08:47.420Z,2.33
2023-10-26T08:10:49.247Z,0.80
2023-10-26T08:12:52.922Z,0.40
2023-10-26T08:16:30.158Z,0.47
2023-10-26T08:17:18.990Z,0.50
2023-10-26T08:19:20.906Z,0.40
2023-10-26T08:21:22.911Z,0.30
2023-10-26T08:23:25.152Z,0.52
2023-10-26T08:25:27.042Z,0.32
2023-10-26T08:27:28.952Z,0.40
2023-10-26T08:29:30.908Z,0.30
2023-10-26T08:31:40.054Z,0.30
2023-10-26T08:33:43.180Z,0.50
2023-10-26T08:35:51.701Z,0.65
2023-10-26T08:37:53.694Z,0.40
2023-10-26T08:39:55.620Z,0.68
2023-10-26T08:42:02.797Z,0.43
2023-10-26T08:46:20.731Z,0.40
2023-10-26T08:48:25.800Z,0.45
2023-10-26T08:50:30.314Z,0.30
2023-10-26T08:52:32.119Z,0.45
2023-10-26T08:54:33.916Z,0.30
2023-10-26T08:56:35.790Z,0.25
2023-10-26T08:58:38.349Z,0.20
2023-10-26T09:00:42.195Z,0.30
2023-10-26T09:02:44.227Z,0.25
2023-10-26T09:05:05.801Z,0.38
2023-10-26T09:07:07.655Z,0.20
2023-10-26T09:09:09.518Z,0.30
2023-10-26T09:11:31.669Z,0.32
2023-10-26T09:13:34.382Z,0.22
2023-10-26T09:15:51.128Z,0.30
2023-10-26T09:17:57.153Z,0.40
2023-10-26T09:19:59.424Z,0.32
2023-10-26T09:22:01.358Z,0.30
2023-10-26T09:24:18.915Z,0.30
2023-10-26T09:26:21.936Z,0.20
2023-10-26T09:28:23.779Z,0.40
2023-10-26T09:30:27.525Z,0.40
2023-10-26T09:32:36.841Z,0.40
2023-10-26T09:34:47.088Z,0.50
2023-10-26T09:37:03.970Z,0.50
2023-10-26T09:39:09.868Z,0.30
2023-10-26T09:41:17.281Z,0.38
2023-10-26T09:43:19.238Z,0.35
2023-10-26T09:45:21.329Z,0.20
2023-10-26T09:47:26.057Z,0.30
2023-10-26T09:49:28.264Z,0.38
2023-10-26T09:51:30.143Z,0.30
2023-10-26T09:53:41.763Z,0.30
2023-10-26T09:55:46.669Z,0.20
2023-10-26T09:58:03.319Z,0.20
2023-10-26T10:00:12.876Z,0.30
2023-10-26T10:02:19.929Z,0.30
2023-10-26T10:04:38.934Z,0.40
2023-10-26T10:06:54.482Z,0.30
2023-10-26T10:09:01.075Z,0.20
2023-10-26T10:11:20.882Z,0.30
2023-10-26T10:13:40.278Z,0.30
2023-10-26T10:15:44.431Z,0.20
2023-10-26T10:17:46.278Z,0.30
2023-10-26T10:20:08.808Z,0.20
2023-10-26T10:22:35.450Z,0.50
2023-10-26T10:24:46.161Z,0.52
2023-10-26T10:27:11.293Z,0.32
2023-10-26T10:31:26.497Z,0.32
2023-10-26T10:33:29.742Z,0.40
2023-10-26T10:35:46.608Z,0.30
2023-10-26T10:38:17.269Z,0.38
2023-10-26T10:40:21.198Z,0.32
2023-10-26T10:42:24.362Z,0.20
2023-10-26T10:44:27.522Z,0.20
2023-10-26T10:46:29.470Z,0.20
2023-10-26T10:48:31.512Z,0.20
2023-10-26T10:50:33.292Z,0.30
2023-10-26T10:52:35.045Z,0.28
2023-10-26T10:56:44.447Z,0.20
2023-10-26T10:58:46.370Z,0.10
2023-10-26T11:00:50.081Z,0.20
2023-10-26T11:02:53.881Z,0.20
2023-10-26T11:05:12.710Z,0.10
2023-10-26T11:07:25.733Z,0.27
2023-10-26T11:09:39.235Z,0.20
2023-10-26T11:11:40.948Z,0.20
2023-10-26T11:13:42.906Z,0.30
2023-10-26T11:15:44.849Z,0.20
2023-10-26T11:17:48.903Z,0.20
2023-10-26T11:21:56.846Z,0.20
2023-10-26T11:23:59.163Z,0.20
2023-10-26T11:26:14.797Z,0.30
2023-10-26T11:28:16.788Z,0.17
2023-10-26T11:30:18.816Z,0.20
2023-10-26T11:32:28.030Z,0.20
2023-10-26T11:34:30.843Z,0.20
2023-10-26T11:36:32.708Z,0.20
2023-10-26T11:38:34.494Z,0.20
2023-10-26T11:40:36.357Z,0.30
2023-10-26T11:42:57.064Z,0.15
2023-10-26T11:44:58.862Z,0.22
2023-10-26T11:47:01.228Z,0.30
2023-10-26T11:49:05.136Z,0.30
2023-10-26T11:51:10.806Z,0.30
2023-10-26T11:53:12.800Z,0.20
2023-10-26T11:55:18.932Z,0.30
2023-10-26T11:57:20.804Z,0.20
2023-10-26T11:59:22.840Z,0.10
2023-10-26T12:01:24.621Z,0.20
2023-10-26T12:03:27.713Z,0.20
2023-10-26T12:05:31.497Z,0.10
2023-10-26T12:07:33.694Z,0.20
2023-10-26T12:09:35.536Z,0.20
2023-10-26T12:11:37.339Z,0.22
2023-10-26T12:13:40.144Z,0.40
2023-10-26T12:15:42.909Z,0.20
2023-10-26T12:17:45.609Z,0.20
2023-10-26T12:19:47.459Z,0.20
2023-10-26T12:21:49.620Z,0.20
2023-10-26T12:23:51.510Z,0.10
2023-10-26T12:25:53.447Z,0.30
2023-10-26T12:28:19.231Z,0.30
2023-10-26T12:30:17.464Z,0.20
2023-10-26T12:32:21.038Z,0.57
2023-10-26T12:34:23.154Z,0.30
2023-10-26T12:36:25.134Z,0.30
2023-10-26T12:38:26.968Z,0.22
2023-10-26T12:40:28.825Z,0.20
2023-10-26T12:42:44.194Z,0.30
2023-10-26T12:44:47.531Z,0.20
2023-10-26T12:46:59.154Z,0.32
2023-10-26T12:49:01.145Z,0.30
2023-10-26T12:51:06.394Z,0.30
2023-10-26T12:53:08.188Z,0.20
2023-10-26T12:55:10.106Z,0.40
2023-10-26T12:57:12.352Z,0.30
2023-10-26T12:59:14.327Z,0.30
2023-10-26T13:01:17.049Z,0.30
2023-10-26T13:03:19.064Z,0.30
2023-10-26T13:05:20.985Z,0.30
2023-10-26T13:07:25.830Z,0.30
2023-10-26T13:09:29.355Z,0.20
2023-10-26T13:11:32.085Z,0.20
2023-10-26T13:13:33.971Z,0.30
2023-10-26T13:15:37.008Z,0.40
2023-10-26T13:17:38.925Z,0.35
2023-10-26T13:19:40.842Z,0.30
2023-10-26T13:21:43.306Z,0.25
2023-10-26T13:23:45.918Z,0.30
2023-10-26T13:25:47.846Z,0.45
2023-10-26T13:27:49.903Z,0.40
2023-10-26T13:29:51.786Z,0.40
2023-10-26T13:31:53.957Z,0.40
2023-10-26T13:33:58.294Z,0.50
2023-10-26T13:36:00.192Z,0.50
2023-10-26T13:38:03.749Z,0.45
2023-10-26T13:40:06.961Z,0.30
2023-10-26T13:42:08.935Z,0.40
2023-10-26T13:44:10.749Z,0.40
2023-10-26T13:46:12.585Z,0.50
2023-10-26T13:48:16.094Z,0.40
2023-10-26T13:50:18.400Z,0.47
2023-10-26T13:52:20.214Z,0.50
2023-10-26T13:54:22.477Z,0.50
2023-10-26T13:56:26.482Z,0.50
2023-10-26T13:58:28.342Z,0.77
2023-10-26T14:00:30.166Z,0.47
2023-10-26T14:02:31.958Z,0.68
2023-10-26T14:04:36.520Z,0.50
2023-10-26T14:06:39.104Z,0.65
2023-10-26T14:08:40.868Z,0.77
2023-10-26T14:10:42.618Z,0.85
2023-10-26T14:12:48.173Z,0.60
2023-10-26T14:14:50.324Z,0.50
2023-10-26T14:16:52.479Z,0.52
2023-10-26T14:18:54.318Z,0.43
2023-10-26T14:20:56.122Z,0.45
2023-10-26T14:22:59.489Z,0.43
2023-10-26T14:25:03.444Z,0.43
2023-10-26T14:27:05.546Z,0.45
2023-10-26T14:29:07.342Z,0.30
2023-10-26T14:31:09.156Z,0.50
2023-10-26T14:33:11.342Z,0.30
2023-10-26T14:35:14.772Z,0.32
2023-10-26T14:37:17.390Z,0.40
2023-10-26T14:39:20.881Z,0.30
2023-10-26T14:41:22.673Z,0.40
2023-10-26T14:43:25.559Z,0.40
2023-10-26T14:45:27.456Z,0.45
2023-10-26T14:47:29.344Z,0.30
2023-10-26T14:49:31.118Z,0.40
2023-10-26T14:51:35.630Z,0.30
2023-10-26T14:53:37.756Z,0.40
2023-10-26T14:55:43.402Z,0.47
2023-10-26T14:57:45.380Z,0.40
2023-10-26T14:59:47.830Z,0.30
2023-10-26T15:01:49.772Z,0.30
2023-10-26T15:03:52.065Z,0.45
2023-10-26T15:05:54.888Z,0.43
2023-10-26T15:07:56.694Z,0.38
2023-10-26T15:10:24.062Z,0.43
2023-10-26T15:12:20.384Z,0.38
2023-10-26T15:14:23.873Z,0.40
2023-10-26T15:16:27.738Z,0.60
2023-10-26T15:18:30.174Z,0.50
2023-10-26T15:20:35.096Z,0.60
2023-10-26T15:22:37.663Z,0.55
2023-10-26T15:24:39.730Z,0.60
2023-10-26T15:26:41.632Z,0.40
2023-10-26T15:28:43.933Z,0.45
2023-10-26T15:30:46.735Z,0.63
2023-10-26T15:32:49.892Z,0.55
2023-10-26T15:34:51.762Z,0.52
2023-10-26T15:36:53.501Z,0.50
2023-10-26T15:38:57.927Z,0.60
2023-10-26T15:41:06.714Z,0.60
2023-10-26T15:43:08.469Z,0.82
2023-10-26T15:45:13.642Z,0.70
2023-10-26T15:47:15.534Z,0.65
2023-10-26T15:49:32.610Z,0.77
2023-10-26T15:51:39.036Z,0.60
2023-10-26T15:53:40.822Z,0.70
2023-10-26T15:55:42.689Z,0.60
2023-10-26T15:57:44.604Z,0.73
2023-10-26T15:59:46.716Z,0.80
2023-10-26T16:01:48.580Z,0.70
2023-10-26T16:03:50.550Z,0.60
2023-10-26T16:05:52.351Z,0.70
2023-10-26T16:07:54.307Z,0.80
2023-10-26T16:09:59.718Z,0.80
2023-10-26T16:12:02.073Z,0.70
2023-10-26T16:14:03.871Z,0.60
2023-10-26T16:16:06.534Z,0.70
2023-10-26T16:18:08.308Z,0.75
2023-10-26T16:20:10.508Z,0.70
2023-10-26T16:22:12.358Z,0.80
2023-10-26T16:24:14.253Z,0.63
2023-10-26T16:26:16.469Z,0.73
2023-10-26T16:28:18.778Z,0.90
2023-10-26T16:30:23.848Z,1.00
2023-10-26T16:32:28.576Z,0.90
2023-10-26T16:34:30.517Z,0.85
2023-10-26T16:36:32.384Z,0.73
2023-10-26T16:38:34.534Z,0.60
2023-10-26T16:40:43.178Z,1.13
2023-10-26T16:42:45.783Z,0.60
2023-10-26T16:44:47.649Z,0.85
2023-10-26T16:46:50.726Z,0.50
2023-10-26T16:48:52.656Z,0.70
2023-10-26T16:50:56.120Z,0.88
2023-10-26T16:53:01.030Z,0.80
2023-10-26T16:55:02.907Z,0.90
2023-10-26T16:57:08.860Z,1.05
2023-10-26T16:59:11.859Z,0.95
2023-10-26T17:01:13.998Z,0.98
2023-10-26T17:03:17.344Z,0.80
2023-10-26T17:05:20.415Z,0.80
2023-10-26T17:07:23.502Z,0.90
2023-10-26T17:09:25.449Z,0.98
2023-10-26T17:11:27.622Z,1.10
2023-10-26T17:13:31.156Z,1.10
2023-10-26T17:15:34.289Z,0.80
2023-10-26T17:17:36.656Z,1.40
2023-10-26T17:19:38.799Z,1.10
2023-10-26T17:21:43.029Z,1.00
2023-10-26T17:23:45.067Z,1.33
2023-10-26T17:25:48.755Z,1.10
2023-10-26T17:27:52.483Z,1.42
2023-10-26T17:29:54.380Z,1.45
2023-10-26T17:31:56.643Z,1.13
2023-10-26T17:33:58.396Z,1.30
2023-10-26T17:36:10.353Z,1.52
2023-10-26T17:38:49.545Z,1.33
2023-10-26T17:40:52.205Z,1.23
2023-10-26T17:42:54.326Z,1.25
2023-10-26T17:44:56.120Z,1.20
2023-10-26T17:47:00.505Z,0.98
2023-10-26T17:49:02.487Z,0.98
2023-10-26T17:51:08.544Z,1.30
2023-10-26T17:53:12.690Z,1.20
2023-10-26T17:55:16.377Z,1.40
2023-10-26T17:57:19.798Z,1.40
2023-10-26T17:59:22.580Z,0.98
2023-10-26T18:01:24.960Z,1.25
2023-10-26T18:03:26.757Z,1.67
2023-10-26T18:05:30.988Z,0.95
2023-10-26T18:07:35.241Z,1.38
2023-10-26T18:09:38.161Z,1.40
2023-10-26T18:11:44.592Z,1.27
2023-10-26T18:13:46.911Z,1.63
2023-10-26T18:15:56.974Z,1.10
2023-10-26T18:18:04.009Z,1.23
2023-10-26T18:20:06.538Z,1.15
2023-10-26T18:22:08.771Z,1.10
2023-10-26T18:24:10.886Z,0.98
2023-10-26T18:26:15.250Z,1.60
2023-10-26T18:28:18.175Z,1.00
2023-10-26T18:30:19.966Z,1.20
2023-10-26T18:32:22.444Z,1.50
2023-10-26T18:34:24.574Z,1.30
2023-10-26T18:36:29.630Z,1.45
2023-10-26T18:38:36.222Z,1.48
2023-10-26T18:40:41.948Z,1.73
2023-10-26T18:42:44.106Z,1.50
2023-10-26T18:44:48.454Z,1.70
2023-10-26T18:48:55.591Z,1.58
2023-10-26T18:50:58.590Z,2.00
2023-10-26T18:53:01.693Z,1.23
2023-10-26T18:55:04.348Z,1.52
2023-10-26T18:57:06.406Z,1.50
2023-10-26T18:59:08.394Z,1.40
2023-10-26T19:01:10.368Z,1.60
2023-10-26T19:03:29.264Z,1.38
2023-10-26T19:05:31.131Z,1.50
2023-10-26T19:07:32.993Z,1.20
2023-10-26T19:09:34.959Z,1.40
2023-10-26T19:11:37.970Z,1.33
2023-10-26T19:13:40.298Z,1.48
2023-10-26T19:15:42.446Z,1.35
2023-10-26T19:17:44.385Z,1.80
2023-10-26T19:19:46.792Z,1.27
2023-10-26T19:21:49.008Z,1.35
2023-10-26T19:23:51.028Z,1.15
2023-10-26T19:25:53.662Z,1.30
2023-10-26T19:27:57.270Z,1.50
2023-10-26T19:29:59.197Z,1.30
2023-10-26T19:32:01.179Z,1.60
2023-10-26T19:34:04.748Z,1.70
2023-10-26T19:36:09.503Z,1.33
2023-10-26T19:38:17.367Z,1.33
2023-10-26T19:40:19.564Z,1.40
2023-10-26T19:42:21.920Z,1.27
2023-10-26T19:44:23.934Z,1.55
2023-10-26T19:46:26.288Z,1.23
2023-10-26T19:48:28.084Z,1.63
2023-10-26T19:52:41.827Z,1.73
2023-10-26T19:54:46.797Z,1.40
2023-10-26T19:56:48.850Z,2.20
2023-10-26T19:58:50.939Z,2.15
2023-10-26T20:00:58.151Z,1.88
2023-10-26T20:03:00.285Z,1.77
2023-10-26T20:05:02.214Z,2.10
2023-10-26T20:07:05.159Z,1.73
2023-10-26T20:09:07.852Z,2.17
2023-10-26T20:11:10.539Z,2.70
2023-10-26T20:13:12.468Z,4.70
2023-10-26T20:15:14.268Z,1.88
2023-10-26T20:17:16.845Z,2.22
2023-10-26T20:19:18.831Z,2.78
2023-10-26T20:21:20.702Z,2.35
2023-10-26T20:23:22.445Z,2.42
2023-10-26T20:25:24.391Z,2.22
2023-10-26T20:27:26.411Z,4.57
2023-10-26T20:29:28.382Z,2.00
2023-10-26T20:31:34.744Z,3.35
2023-10-26T20:33:37.211Z,3.05
2023-10-26T20:35:39.036Z,2.83
2023-10-26T20:37:41.132Z,3.38
2023-10-26T20:39:44.968Z,3.35
2023-10-26T20:41:46.971Z,2.38
2023-10-26T20:43:54.091Z,3.40
2023-10-26T20:46:00.377Z,2.83
2023-10-26T20:48:02.864Z,3.55
2023-10-26T20:50:04.876Z,2.63
2023-10-26T20:52:07.650Z,2.83
2023-10-26T20:54:09.811Z,2.67
2023-10-26T20:56:11.693Z,3.63
2023-10-26T20:58:19.683Z,3.20
2023-10-26T21:00:22.513Z,2.35
2023-10-26T21:02:24.682Z,3.00
2023-10-26T21:04:26.664Z,5.20
2023-10-26T21:06:29.809Z,2.33
2023-10-26T21:08:32.908Z,2.88
2023-10-26T21:10:35.928Z,2.70
2023-10-26T21:12:37.894Z,2.90
2023-10-26T21:14:42.445Z,3.10
2023-10-26T21:16:44.432Z,2.40
2023-10-26T21:18:46.352Z,2.63
2023-10-26T21:20:48.288Z,3.53
2023-10-26T21:22:51.959Z,2.55
2023-10-26T21:24:53.949Z,2.85
2023-10-26T21:26:56.047Z,3.00
2023-10-26T21:28:57.854Z,2.38
2023-10-26T21:30:59.836Z,2.70
2023-10-26T21:33:01.838Z,3.88
2023-10-26T21:35:04.055Z,2.90
2023-10-26T21:37:05.983Z,2.22
2023-10-26T21:39:10.482Z,2.28
2023-10-26T21:41:12.612Z,2.65
2023-10-26T21:43:15.991Z,2.67
2023-10-26T21:45:18.422Z,2.53
2023-10-26T21:47:20.556Z,3.00
2023-10-26T21:49:22.490Z,2.55
2023-10-26T21:51:24.470Z,3.17
2023-10-26T21:53:28.056Z,2.90
2023-10-26T21:55:30.945Z,2.72
2023-10-26T21:57:32.836Z,2.75
2023-10-26T21:59:34.853Z,2.53
2023-10-26T22:01:37.157Z,3.35
2023-10-26T22:03:39.806Z,2.72
2023-10-26T22:05:44.899Z,2.60
2023-10-26T22:07:46.852Z,2.90
2023-10-26T22:09:55.548Z,2.83
2023-10-26T22:11:58.427Z,2.55
2023-10-26T22:14:00.368Z,3.65
2023-10-26T22:16:02.449Z,2.92
2023-10-26T22:18:08.521Z,2.85
2023-10-26T22:20:13.556Z,2.50
2023-10-26T22:22:15.833Z,3.33
2023-10-26T22:24:17.661Z,2.53
2023-10-26T22:26:19.540Z,3.42
2023-10-26T22:28:21.407Z,2.53
2023-10-26T22:30:23.436Z,2.67
2023-10-26T22:32:25.719Z,2.13
2023-10-26T22:34:27.846Z,2.80
2023-10-26T22:36:29.759Z,2.72
2023-10-26T22:38:32.166Z,2.80
2023-10-26T22:40:35.969Z,3.78
2023-10-26T22:42:37.993Z,3.15
2023-10-26T22:44:40.098Z,3.13
2023-10-26T22:46:44.097Z,2.60
2023-10-26T22:48:47.351Z,3.25
2023-10-26T22:50:50.664Z,3.23
2023-10-26T22:52:54.814Z,3.37
2023-10-26T22:54:58.573Z,2.45
2023-10-26T22:57:01.956Z,2.65
2023-10-26T22:59:03.798Z,3.40
2023-10-26T23:01:06.723Z,2.47
2023-10-26T23:03:10.869Z,2.40
2023-10-26T23:05:12.867Z,2.90
2023-10-26T23:07:14.864Z,2.75
2023-10-26T23:09:17.726Z,3.47
2023-10-26T23:11:19.697Z,2.53
2023-10-26T23:13:21.657Z,3.65
2023-10-26T23:15:25.978Z,2.65
2023-10-26T23:19:30.262Z,2.25
2023-10-26T23:21:35.390Z,2.53
2023-10-26T23:23:40.823Z,2.75
2023-10-26T23:25:45.266Z,2.58
2023-10-26T23:27:50.539Z,3.22
2023-10-26T23:29:52.381Z,2.08
2023-10-26T23:31:54.646Z,2.42
2023-10-26T23:33:56.709Z,2.70
2023-10-26T23:36:05.249Z,2.45
2023-10-26T23:38:07.089Z,2.05
2023-10-26T23:40:10.070Z,2.60
2023-10-26T23:42:12.080Z,3.13
2023-10-26T23:44:16.638Z,2.60
2023-10-26T23:46:18.566Z,2.67
2023-10-26T23:48:20.712Z,2.75
2023-10-26T23:50:23.861Z,2.45
2023-10-26T23:52:25.700Z,2.97
2023-10-26T23:54:28.194Z,2.58
2023-10-26T23:56:30.235Z,2.15
2023-10-26T23:58:35.019Z,2.05
